Time;durP1;ratioP1;P1;durP2;ratioP2;P2;SDS_P1;SDS_P2;PMS_P1;PMS_P2;Temp;Humidity;BMP_temperature;BMP_pressure;BME280_temperature;BME280_humidity;BME280_pressure;Samples;Min_cycle;Max_cycle;Signal;HPM_P1;HPM_P2
2021/07/29 00:01:11;;;;;;;;;;;;;;;5.87;98.84;99360.28;5050157;28;19921;-92
2021/07/29 00:03:36;;;;;;;;;;;;;;;5.93;99.22;99364.50;5051295;28;19969;-92
2021/07/29 00:06:01;;;;;;;;;;;;;;;5.84;98.76;99360.38;5049589;28;19925;-93
2021/07/29 00:08:27;;;;;;;;;;;;;;;5.79;98.87;99359.63;5049736;28;20363;-91
2021/07/29 00:10:52;;;;;;;;;;;;;;;5.85;99.73;99359.47;5048090;28;19921;-91
2021/07/29 00:13:17;;;;;;;;;;;;;;;5.85;99.84;99359.47;5049049;28;19986;-91
2021/07/29 00:15:43;;;;;;;;;;;;;;;5.83;99.20;99350.75;5048349;28;19948;-92
2021/07/29 00:20:35;;;;;;;;;;;;;;;5.87;99.16;99359.41;5049713;28;19921;-92
2021/07/29 00:23:01;;;;;;;;;;;;;;;5.83;99.07;99356.88;5049479;28;19940;-92
2021/07/29 00:25:27;;;;;;;;;;;;;;;5.83;98.94;99353.41;5048353;28;19921;-93
2021/07/29 00:27:52;;;;;;;;;;;;;;;5.82;98.56;99352.53;5048946;28;19979;-92
2021/07/29 00:30:18;;;;;;;;;;;;;;;5.80;98.68;99350.84;5049102;28;19931;-91
2021/07/29 00:32:44;;;;;;;;;;;;;;;5.82;99.18;99351.66;5049504;28;19951;-92
2021/07/29 00:35:14;;;;;;;;;;;;;;;5.84;100.00;99344.59;5048769;28;19963;-91
2021/07/29 00:37:44;;;;;;;;;;;;;;;5.80;99.67;99343.81;5032352;28;19921;-92
2021/07/29 00:40:10;;;;;;;;;;;;;;;5.85;99.33;99345.47;5048198;28;19917;-92
2021/07/29 00:42:35;;;;;;;;;;;;;;;5.71;99.54;99348.50;5046716;28;20019;-93
2021/07/29 00:45:01;;;;;;;;;;;;;;;5.82;99.54;99346.41;5046561;28;19931;-93
2021/07/29 00:47:26;;;;;;;;;;;;;;;5.71;99.18;99340.59;5046150;28;19917;-92
2021/07/29 00:49:53;;;;;;;;;;;;;;;5.71;99.26;99337.97;5045133;28;19990;-90
2021/07/29 00:52:20;;;;;;;;;;;;;;;5.80;100.00;99335.94;5045301;28;19921;-91
2021/07/29 00:54:46;;;;;;;;;;;;;;;5.67;99.41;99331.97;5039428;28;19964;-92
2021/07/29 00:57:11;;;;;;;;;;;;;;;5.73;99.75;99328.31;5040879;28;19928;-92
2021/07/29 00:59:37;;;;;;;;;;;;;;;5.68;99.75;99328.44;5045033;28;19936;-90
2021/07/29 01:02:02;;;;;;;;;;;;;;;5.75;99.90;99326.47;5042490;28;19917;-91
2021/07/29 01:04:28;;;;;;;;;;;;;;;5.67;99.38;99331.13;5043381;28;19965;-92
2021/07/29 01:06:54;;;;;;;;;;;;;;;5.64;99.15;99338.16;5042078;28;19952;-91
2021/07/29 01:09:19;;;;;;;;;;;;;;;5.68;99.77;99325.81;5042181;28;19927;-91
2021/07/29 01:11:45;;;;;;;;;;;;;;;5.71;98.57;99324.84;5042262;28;19921;-91
2021/07/29 01:14:11;;;;;;;;;;;;;;;5.69;98.74;99316.16;5042539;28;19925;-92
2021/07/29 01:16:37;;;;;;;;;;;;;;;5.72;98.81;99324.78;5042102;28;19929;-93
2021/07/29 03:23:10;;;;;;;;;;;;;;;5.56;100.00;99365.59;6072495;22;19911;-91
2021/07/29 03:25:35;;;;;;;;;;;;;;;5.60;100.00;99357.56;5296605;23;19943;-92
2021/07/29 03:28:14;;;;;;;;;;;;;;;5.65;100.00;99360.06;5096611;28;19916;-95
2021/07/29 03:38:26;;;;;;;;;;;;;;;5.70;100.00;99366.03;5688793;22;19925;-94
2021/07/29 03:40:51;;;;;;;;;;;;;;;6.09;100.00;99365.75;5057966;28;19940;-92
2021/07/29 03:43:16;;;;;;;;;;;;;;;6.62;100.00;99364.97;5056263;28;19948;-93
2021/07/29 03:45:44;;;;;;;;;;;;;;;6.73;100.00;99367.22;5176275;22;19941;-93
2021/07/29 03:48:20;;;;;;;;;;;;;;;6.59;100.00;99367.69;5060356;28;19921;-95
2021/07/29 03:50:53;;;;;;;;;;;;;;;6.51;100.00;99377.59;5061091;28;19909;-94
2021/07/29 03:53:42;;;;;;;;;;;;;;;6.38;100.00;99365.75;5060587;28;19968;-94
2021/07/29 04:29:55;;;;;;;;;;;;;;;6.28;100.00;99392.34;6060431;22;19924;-90
2021/07/29 04:34:56;;;;;;;;;;;;;;;6.14;100.00;99394.56;5700848;22;19929;-94
2021/07/29 04:37:27;;;;;;;;;;;;;;;6.15;100.00;99385.75;5055398;28;19970;-92
2021/07/29 04:39:52;;;;;;;;;;;;;;;6.06;100.00;99393.94;5064782;28;19956;-93
2021/07/29 04:42:17;;;;;;;;;;;;;;;6.04;100.00;99395.75;5046402;28;19917;-92
2021/07/29 07:37:56;;;;;;;;;;;;;;;5.28;100.00;99502.97;5488519;22;19925;-92
2021/07/29 07:40:21;;;;;;;;;;;;;;;5.23;100.00;99503.13;5059364;28;19985;-91
2021/07/29 07:42:48;;;;;;;;;;;;;;;5.31;100.00;99502.03;5077941;28;19921;-92
2021/07/29 07:45:14;;;;;;;;;;;;;;;5.21;100.00;99506.66;5076875;28;19920;-93
2021/07/29 07:47:39;;;;;;;;;;;;;;;5.22;100.00;99516.28;5078671;28;19927;-92
2021/07/29 07:50:05;;;;;;;;;;;;;;;5.12;100.00;99515.63;5076911;28;19951;-93
2021/07/29 07:52:31;;;;;;;;;;;;;;;5.19;100.00;99509.34;5042956;28;19932;-91
2021/07/29 07:54:58;;;;;;;;;;;;;;;5.21;100.00;99511.91;5044149;28;19931;-92
2021/07/29 07:57:23;;;;;;;;;;;;;;;5.26;100.00;99510.91;5042915;28;19927;-90
2021/07/29 07:59:50;;;;;;;;;;;;;;;5.28;100.00;99508.22;5074327;28;20007;-89
2021/07/29 08:02:16;;;;;;;;;;;;;;;5.27;100.00;99512.63;5058799;28;20115;-90
2021/07/29 08:04:41;;;;;;;;;;;;;;;5.26;100.00;99510.91;5057942;28;20339;-90
2021/07/29 08:07:06;;;;;;;;;;;;;;;5.24;100.00;99502.19;5066580;28;19928;-91
2021/07/29 08:09:32;;;;;;;;;;;;;;;5.25;100.00;99509.19;5059313;28;19928;-91
2021/07/29 08:11:57;;;;;;;;;;;;;;;5.26;100.00;99515.28;5062005;28;19959;-91
2021/07/29 08:14:22;;;;;;;;;;;;;;;5.22;100.00;99509.25;5023017;28;19925;-90
2021/07/29 08:16:48;;;;;;;;;;;;;;;5.20;100.00;99511.06;5055197;28;19921;-90
2021/07/29 08:19:13;;;;;;;;;;;;;;;5.21;100.00;99506.66;5054688;28;19932;-91
2021/07/29 08:21:39;;;;;;;;;;;;;;;5.30;100.00;99516.06;5054686;28;19921;-92
2021/07/29 08:24:04;;;;;;;;;;;;;;;5.28;100.00;99509.09;5065186;28;19924;-91
2021/07/29 08:26:30;;;;;;;;;;;;;;;5.25;100.00;99509.19;5055534;28;19948;-90
2021/07/29 08:28:57;;;;;;;;;;;;;;;5.37;100.00;99512.41;5059843;28;19932;-92
2021/07/29 08:31:22;;;;;;;;;;;;;;;5.23;100.00;99508.38;5042171;28;19932;-90
2021/07/29 08:33:47;;;;;;;;;;;;;;;5.33;100.00;99510.72;5039356;28;19925;-90
2021/07/29 08:36:14;;;;;;;;;;;;;;;5.30;100.00;99510.81;5038921;28;19929;-90
2021/07/29 08:38:40;;;;;;;;;;;;;;;5.28;100.00;99511.72;5070698;28;19931;-89
2021/07/29 08:41:05;;;;;;;;;;;;;;;5.28;100.00;99510.84;5058085;28;19921;-91
2021/07/29 08:43:32;;;;;;;;;;;;;;;5.25;100.00;99511.81;5064492;28;19932;-90
2021/07/29 08:45:58;;;;;;;;;;;;;;;5.33;100.00;99510.72;5063294;28;19931;-90
2021/07/29 08:51:55;;;;;;;;;;;;;;;5.29;100.00;99515.22;5040529;28;20012;-90
2021/07/29 08:54:21;;;;;;;;;;;;;;;5.28;100.00;99514.38;5043872;28;20323;-94
2021/07/29 08:56:50;;;;;;;;;;;;;;;5.26;100.00;99513.53;5039938;28;20288;-93
2021/07/29 09:01:45;;;;;;;;;;;;;;;5.34;100.00;99507.22;5050309;28;19921;-92
2021/07/29 09:04:11;;;;;;;;;;;;;;;5.32;100.00;99519.53;5058111;28;19921;-93
2021/07/29 09:06:51;;;;;;;;;;;;;;;5.34;100.00;99515.09;5060423;28;19924;-91
2021/07/29 09:09:54;;;;;;;;;;;;;;;5.28;100.00;99513.47;5055992;28;19943;-91
2021/07/29 09:12:25;;;;;;;;;;;;;;;5.33;100.00;99513.38;5036107;28;19931;-91
2021/07/29 09:14:55;;;;;;;;;;;;;;;5.35;100.00;99506.31;5056847;28;20267;-92
2021/07/29 09:17:41;;;;;;;;;;;;;;;5.28;100.00;99509.09;5058028;28;19959;-93
2021/07/29 09:20:15;;;;;;;;;;;;;;;5.32;100.00;99503.78;5044603;28;19920;-92
2021/07/29 09:22:41;;;;;;;;;;;;;;;5.33;100.00;99503.75;5044749;28;20007;-93
2021/07/29 09:25:07;;;;;;;;;;;;;;;5.36;100.00;99505.41;5079612;28;19932;-92
2021/07/29 09:27:39;;;;;;;;;;;;;;;5.36;100.00;99508.03;5045417;28;19932;-91
2021/07/29 09:30:23;;;;;;;;;;;;;;;5.36;100.00;99508.03;5051497;28;20023;-92
2021/07/29 09:32:53;;;;;;;;;;;;;;;5.34;100.00;99500.19;5082774;28;19925;-95
2021/07/29 09:35:34;;;;;;;;;;;;;;;5.35;100.00;99501.06;5084495;28;19946;-93
2021/07/29 09:38:01;;;;;;;;;;;;;;;5.41;100.00;99498.28;5083372;28;19921;-93
2021/07/29 09:40:36;;;;;;;;;;;;;;;5.41;100.00;99498.28;5080088;28;19928;-92
2021/07/29 09:43:10;;;;;;;;;;;;;;;5.45;100.00;99502.53;5078851;28;19952;-94
2021/07/29 09:45:36;;;;;;;;;;;;;;;5.39;100.00;99492.19;5061367;28;19920;-92
2021/07/29 09:48:05;;;;;;;;;;;;;;;5.39;100.00;99490.44;5044098;28;20612;-91
2021/07/29 09:50:32;;;;;;;;;;;;;;;5.42;100.00;99500.00;5061409;28;19952;-91
2021/07/29 09:53:01;;;;;;;;;;;;;;;5.45;100.00;99494.66;5044846;28;19924;-94
2021/07/29 09:55:31;;;;;;;;;;;;;;;5.45;100.00;99498.13;5049014;28;19931;-93
2021/07/29 09:58:01;;;;;;;;;;;;;;;5.45;100.00;99486.78;5063270;28;19920;-92
2021/07/29 10:00:42;;;;;;;;;;;;;;;5.42;100.00;99487.69;5061769;28;19920;-91
2021/07/29 10:03:12;;;;;;;;;;;;;;;5.45;100.00;99490.25;5063246;28;20357;-94
2021/07/29 10:06:01;;;;;;;;;;;;;;;5.49;100.00;99496.31;5062669;28;19931;-92
2021/07/29 10:08:30;;;;;;;;;;;;;;;5.49;100.00;99484.91;5050196;28;19931;-92
2021/07/29 10:10:55;;;;;;;;;;;;;;;5.46;100.00;99475.38;5070089;28;19929;-92
2021/07/29 10:13:54;;;;;;;;;;;;;;;5.47;100.00;99482.31;5070782;28;20007;-93
2021/07/29 10:16:38;;;;;;;;;;;;;;;5.50;100.00;99476.13;5044064;28;19975;-92
2021/07/29 10:19:11;;;;;;;;;;;;;;;5.47;100.00;99477.06;5049798;28;19948;-92
2021/07/29 10:21:47;;;;;;;;;;;;;;;5.49;100.00;99475.28;5070056;28;20287;-91
2021/07/29 10:24:13;;;;;;;;;;;;;;;5.43;100.00;99476.31;5081967;28;19923;-91
2021/07/29 10:26:57;;;;;;;;;;;;;;;5.51;100.00;99483.97;5090019;28;19947;-91
2021/07/29 10:29:27;;;;;;;;;;;;;;;5.51;100.00;99491.88;5050658;28;19916;-91
2021/07/29 10:32:19;;;;;;;;;;;;;;;5.44;100.00;99490.28;5047581;28;19964;-91
2021/07/29 10:34:50;;;;;;;;;;;;;;;5.44;100.00;99500.81;5067554;28;19928;-93
2021/07/29 10:37:36;;;;;;;;;;;;;;;5.45;100.00;99489.41;5078610;28;19932;-91
2021/07/29 10:40:05;;;;;;;;;;;;;;;5.43;100.00;99491.22;5061853;28;20397;-92
2021/07/29 10:42:31;;;;;;;;;;;;;;;5.42;100.00;99485.06;5068574;28;19947;-91
2021/07/29 10:44:57;;;;;;;;;;;;;;;5.41;100.00;99487.78;5097116;28;20553;-91
2021/07/29 10:47:36;;;;;;;;;;;;;;;5.40;100.00;99497.41;5100199;28;19992;-91
2021/07/29 10:50:02;;;;;;;;;;;;;;;5.43;100.00;99481.56;5098822;28;19921;-93
2021/07/29 10:52:29;;;;;;;;;;;;;;;5.39;100.00;99485.19;5096213;28;19947;-91
2021/07/29 10:54:56;;;;;;;;;;;;;;;5.47;100.00;99479.69;5100044;28;19924;-91
2021/07/29 10:57:33;;;;;;;;;;;;;;;5.46;100.00;99480.63;5061164;28;19953;-92
2021/07/29 11:00:07;;;;;;;;;;;;;;;5.46;100.00;99496.41;5055294;28;19959;-92
2021/07/29 11:02:46;;;;;;;;;;;;;;;5.36;100.00;99487.00;5074114;28;19920;-92
2021/07/29 11:05:27;;;;;;;;;;;;;;;5.35;100.00;99488.78;5096475;28;19966;-90
2021/07/29 11:07:53;;;;;;;;;;;;;;;5.38;100.00;99482.59;5083015;28;19956;-93
2021/07/29 11:10:23;;;;;;;;;;;;;;;5.40;100.00;99486.88;5079933;28;19904;-90
2021/07/29 11:12:48;;;;;;;;;;;;;;;5.44;100.00;99485.03;5095039;28;19925;-91
2021/07/29 11:15:36;;;;;;;;;;;;;;;5.51;100.00;99488.38;5090251;28;20194;-91
2021/07/29 11:18:08;;;;;;;;;;;;;;;5.46;100.00;99478.00;5068724;28;19928;-91
2021/07/29 11:20:43;;;;;;;;;;;;;;;5.45;100.00;99486.78;5075121;28;19947;-92
2021/07/29 11:23:14;;;;;;;;;;;;;;;5.42;100.00;99479.81;5053956;28;19921;-92
2021/07/29 11:25:58;;;;;;;;;;;;;;;5.45;100.00;99487.63;5051933;28;19921;-93
2021/07/29 11:28:27;;;;;;;;;;;;;;;5.48;100.00;99491.09;5058321;28;20284;-90
2021/07/29 11:30:58;;;;;;;;;;;;;;;5.45;100.00;99477.13;5053930;28;20036;-92
2021/07/29 11:33:26;;;;;;;;;;;;;;;5.54;100.00;99477.78;5056912;28;19936;-90
2021/07/29 11:35:54;;;;;;;;;;;;;;;5.50;100.00;99482.25;5061606;28;19932;-90
2021/07/29 11:38:21;;;;;;;;;;;;;;;5.45;100.00;99484.16;5044798;28;19944;-91
2021/07/29 11:40:47;;;;;;;;;;;;;;;5.52;100.00;99490.09;5073253;28;19931;-93
2021/07/29 11:43:25;;;;;;;;;;;;;;;5.45;100.00;99492.03;5071935;28;19921;-92
2021/07/29 11:45:51;;;;;;;;;;;;;;;5.52;100.00;99493.59;5081230;28;19905;-92
2021/07/29 11:48:25;;;;;;;;;;;;;;;5.46;100.00;99485.88;5056464;28;19921;-91
2021/07/29 11:50:51;;;;;;;;;;;;;;;5.46;100.00;99485.88;5048300;28;19920;-90
2021/07/29 11:53:18;;;;;;;;;;;;;;;5.54;100.00;99477.78;5075662;28;19925;-90
2021/07/29 11:55:56;;;;;;;;;;;;;;;5.46;100.00;99488.50;5062658;28;19943;-91
2021/07/29 11:58:22;;;;;;;;;;;;;;;5.54;100.00;99476.03;5073802;28;19931;-91
2021/07/29 12:00:55;;;;;;;;;;;;;;;5.53;100.00;99473.44;5057499;28;19929;-93
2021/07/29 12:03:27;;;;;;;;;;;;;;;5.53;100.00;99473.44;5056123;28;20353;-92
2021/07/29 12:05:56;;;;;;;;;;;;;;;5.47;100.00;99469.19;5056295;28;19932;-91
2021/07/29 12:08:22;;;;;;;;;;;;;;;5.51;100.00;99464.75;5036367;28;19925;-91
2021/07/29 12:10:51;;;;;;;;;;;;;;;5.52;100.00;99464.69;5055537;28;19921;-91
2021/07/29 12:13:18;;;;;;;;;;;;;;;5.56;100.00;99470.72;5056442;28;20023;-92
2021/07/29 12:15:47;;;;;;;;;;;;;;;5.57;100.00;99457.53;5058728;28;20426;-91
2021/07/29 12:18:14;;;;;;;;;;;;;;;5.59;100.00;99455.72;5054656;28;19929;-91
2021/07/29 12:20:43;;;;;;;;;;;;;;;5.50;100.00;99461.22;5057742;28;19920;-90
2021/07/29 12:23:09;;;;;;;;;;;;;;;5.54;100.00;99452.38;5059046;28;19921;-92
2021/07/29 12:25:35;;;;;;;;;;;;;;;5.58;100.00;99459.25;5066529;28;19925;-90
2021/07/29 12:28:01;;;;;;;;;;;;;;;5.55;100.00;99462.00;5039900;28;19932;-90
2021/07/29 12:30:30;;;;;;;;;;;;;;;5.50;100.00;99461.22;5059007;28;19979;-90
2021/07/29 12:33:07;;;;;;;;;;;;;;;5.50;100.00;99458.59;5058412;28;19925;-91
2021/07/29 12:35:32;;;;;;;;;;;;;;;5.54;100.00;99457.63;5059620;28;19979;-92
2021/07/29 12:37:58;;;;;;;;;;;;;;;5.50;100.00;99455.13;5049410;28;20254;-92
2021/07/29 12:40:25;;;;;;;;;;;;;;;5.51;100.00;99455.06;5068958;28;19956;-90
2021/07/29 12:42:50;;;;;;;;;;;;;;;5.51;100.00;99452.44;5050156;28;20208;-90
2021/07/29 12:45:15;;;;;;;;;;;;;;;5.57;100.00;99446.19;5045062;28;19920;-91
2021/07/29 12:47:42;;;;;;;;;;;;;;;5.61;100.00;99447.78;5057385;28;19921;-91
2021/07/29 12:50:08;;;;;;;;;;;;;;;5.50;100.00;99448.09;5058950;28;19920;-91
2021/07/29 12:52:34;;;;;;;;;;;;;;;5.50;100.00;99434.09;5058506;28;20395;-90
2021/07/29 12:55:01;;;;;;;;;;;;;;;5.51;100.00;99435.81;5058512;28;19930;-90
2021/07/29 12:57:27;;;;;;;;;;;;;;;5.49;100.00;99433.25;5051669;28;19920;-91
2021/07/29 12:59:52;;;;;;;;;;;;;;;5.55;100.00;99440.97;5054973;28;19917;-91
2021/07/29 13:02:17;;;;;;;;;;;;;;;5.52;100.00;99446.31;5057454;28;19920;-90
2021/07/29 13:04:43;;;;;;;;;;;;;;;5.50;100.00;99439.34;5043411;28;19931;-91
2021/07/29 13:07:08;;;;;;;;;;;;;;;5.48;100.00;99431.50;5057206;28;19960;-92
2021/07/29 13:09:36;;;;;;;;;;;;;;;5.48;100.00;99434.13;5063994;28;20288;-91
2021/07/29 13:12:09;;;;;;;;;;;;;;;5.51;100.00;99422.69;5043985;28;20007;-92
2021/07/29 13:14:35;;;;;;;;;;;;;;;5.52;100.00;99422.66;5063074;28;19925;-92
2021/07/29 13:17:04;;;;;;;;;;;;;;;5.49;100.00;99433.25;5065305;28;19951;-91
2021/07/29 13:19:30;;;;;;;;;;;;;;;5.53;100.00;99431.38;5063807;28;19921;-92
2021/07/29 13:21:55;;;;;;;;;;;;;;;5.53;100.00;99416.47;5062903;28;19974;-92
2021/07/29 13:24:21;;;;;;;;;;;;;;;5.52;100.00;99414.75;5056071;28;19921;-92
2021/07/29 13:26:46;;;;;;;;;;;;;;;5.44;100.00;99409.72;5043608;28;19921;-90
2021/07/29 13:29:12;;;;;;;;;;;;;;;5.45;100.00;99416.66;5057364;28;19921;-91
2021/07/29 13:31:37;;;;;;;;;;;;;;;5.51;100.00;99420.06;5058232;28;20333;-91
2021/07/29 13:34:07;;;;;;;;;;;;;;;5.50;100.00;99411.28;5057876;28;19925;-90
2021/07/29 13:36:32;;;;;;;;;;;;;;;5.56;100.00;99411.13;5056782;28;20339;-92
2021/07/29 13:38:58;;;;;;;;;;;;;;;5.44;100.00;99411.47;5058857;28;19979;-91
2021/07/29 13:41:23;;;;;;;;;;;;;;;5.49;100.00;99411.34;5058505;28;20204;-92
2021/07/29 13:43:48;;;;;;;;;;;;;;;5.53;100.00;99412.97;5062633;28;19951;-92
2021/07/29 13:46:16;;;;;;;;;;;;;;;5.56;100.00;99408.50;5055181;28;19936;-92
2021/07/29 13:48:42;;;;;;;;;;;;;;;5.51;100.00;99399.88;5059202;28;20247;-91
2021/07/29 13:51:09;;;;;;;;;;;;;;;5.51;100.00;99415.66;5056379;28;19932;-91
2021/07/29 13:53:35;;;;;;;;;;;;;;;5.52;100.00;99412.13;5055495;28;20524;-90
2021/07/29 13:56:04;;;;;;;;;;;;;;;5.55;100.00;99405.91;5065502;28;21171;-91
2021/07/29 13:58:30;;;;;;;;;;;;;;;5.55;100.00;99400.66;5053342;28;19947;-91
2021/07/29 14:00:55;;;;;;;;;;;;;;;5.63;100.00;99403.91;5060292;28;20248;-92
2021/07/29 14:03:20;;;;;;;;;;;;;;;5.52;100.00;99399.00;5065546;28;20011;-91
2021/07/29 14:05:46;;;;;;;;;;;;;;;5.54;100.00;99399.81;5056019;28;19946;-91
2021/07/29 14:08:14;;;;;;;;;;;;;;;5.51;100.00;99394.63;5061139;28;19921;-92
2021/07/29 14:10:40;;;;;;;;;;;;;;;5.63;100.00;99396.03;5049729;28;19922;-93
2021/07/29 14:13:05;;;;;;;;;;;;;;;5.60;100.00;99393.50;5057717;28;19935;-92
2021/07/29 14:15:31;;;;;;;;;;;;;;;5.53;100.00;99399.84;5058201;28;19944;-92
2021/07/29 14:18:01;;;;;;;;;;;;;;;5.53;100.00;99387.56;5056032;28;20375;-91
2021/07/29 14:20:31;;;;;;;;;;;;;;;5.58;100.00;99390.06;5053354;28;19974;-89
2021/07/29 14:25:30;;;;;;;;;;;;;;;5.60;100.00;99398.75;5057038;28;19921;-88
2021/07/29 14:27:56;;;;;;;;;;;;;;;5.60;100.00;99383.84;5060008;28;19932;-90
2021/07/29 14:30:22;;;;;;;;;;;;;;;5.68;100.00;99375.75;5060006;28;19921;-93
2021/07/29 14:32:48;;;;;;;;;;;;;;;5.64;100.00;99379.38;5059537;28;20227;-92
2021/07/29 14:35:13;;;;;;;;;;;;;;;5.64;100.00;99380.22;5059519;28;19931;-91
2021/07/29 14:37:38;;;;;;;;;;;;;;;5.58;100.00;99376.91;5057445;28;19920;-90
2021/07/29 14:40:05;;;;;;;;;;;;;;;5.59;100.00;99374.25;5059517;28;19932;-90
2021/07/29 14:42:30;;;;;;;;;;;;;;;5.68;100.00;99375.75;5057158;28;19978;-91
2021/07/29 14:45:00;;;;;;;;;;;;;;;5.70;100.00;99368.69;5044388;28;19925;-90
2021/07/29 14:50:10;;;;;;;;;;;;;;;5.70;100.00;99370.44;5055120;28;20006;-92
2021/07/29 14:52:37;;;;;;;;;;;;;;;5.69;100.00;99360.84;5057428;28;20035;-91
2021/07/29 14:55:15;;;;;;;;;;;;;;;5.67;100.00;99363.50;5058357;28;19999;-92
2021/07/29 16:08:38;;;;;;;;;;;;;;;5.69;99.76;99330.13;5064531;28;19947;-91
2021/07/29 16:11:04;;;;;;;;;;;;;;;5.68;99.97;99325.81;5057731;28;19932;-92
2021/07/29 16:13:31;;;;;;;;;;;;;;;5.63;99.91;99331.19;5063627;28;19928;-90
2021/07/29 16:15:58;;;;;;;;;;;;;;;5.59;99.71;99328.72;5063195;28;19995;-89
2021/07/29 16:18:33;;;;;;;;;;;;;;;;;;;;;
2021/07/29 16:20:59;;;;;;;;;;;;;;;5.59;99.04;99321.66;5064101;28;19984;-90
2021/07/29 16:23:25;;;;;;;;;;;;;;;5.56;100.00;99316.50;5063355;28;19953;-90
2021/07/29 16:25:50;;;;;;;;;;;;;;;5.57;99.35;99318.25;5044565;28;20300;-89
2021/07/29 16:28:16;;;;;;;;;;;;;;;5.57;99.92;99310.34;5066969;28;19985;-91
2021/07/29 16:30:41;;;;;;;;;;;;;;;5.53;99.30;99324.47;5064881;28;19943;-89
2021/07/29 16:33:09;;;;;;;;;;;;;;;5.57;99.28;99331.38;5064864;28;19932;-90
2021/07/29 16:35:37;;;;;;;;;;;;;;;5.51;99.67;99320.19;5068422;28;19998;-91
2021/07/29 16:38:03;;;;;;;;;;;;;;;5.48;99.64;99325.53;5069853;28;19917;-90
2021/07/29 16:40:29;;;;;;;;;;;;;;;5.56;99.48;99323.53;5067817;28;19959;-89
2021/07/29 16:42:56;;;;;;;;;;;;;;;5.52;99.41;99316.63;5065286;28;19921;-90
2021/07/29 16:45:21;;;;;;;;;;;;;;;5.51;99.39;99317.56;5065681;28;19927;-91
2021/07/29 16:48:01;;;;;;;;;;;;;;;;;;;;;
2021/07/29 16:50:28;;;;;;;;;;;;;;;5.51;99.13;99307.06;5061374;28;20383;-90
2021/07/29 16:52:53;;;;;;;;;;;;;;;5.45;99.47;99294.94;5074978;28;19964;-89
2021/07/29 16:55:19;;;;;;;;;;;;;;;5.51;99.77;99305.28;5065374;28;19921;-90
2021/07/29 16:57:44;;;;;;;;;;;;;;;5.50;100.00;99303.53;5060456;28;19924;-90
2021/07/29 17:00:23;;;;;;;;;;;;;;;5.55;99.68;99300.78;5048233;28;19947;-90
2021/07/29 17:02:50;;;;;;;;;;;;;;;5.50;99.94;99303.53;5068654;28;19921;-90
2021/07/29 17:05:26;;;;;;;;;;;;;;;5.54;98.97;99297.31;5065041;28;19924;-91
2021/07/29 17:08:10;;;;;;;;;;;;;;;5.50;99.58;99295.66;5060016;28;19921;-90
2021/07/29 17:10:37;;;;;;;;;;;;;;;5.48;99.81;99310.63;5060316;28;19960;-90
2021/07/29 17:13:03;;;;;;;;;;;;;;;5.50;99.64;99303.53;5062842;28;19925;-90
2021/07/29 17:15:40;;;;;;;;;;;;;;;5.43;99.06;99312.53;5064585;28;19920;-91
2021/07/29 17:18:07;;;;;;;;;;;;;;;5.55;99.89;99309.56;5063061;28;19925;-90
2021/07/29 17:20:36;;;;;;;;;;;;;;;5.50;99.06;99314.06;5057825;28;19988;-90
2021/07/29 17:23:08;;;;;;;;;;;;;;;5.46;99.55;99315.06;5064966;28;19927;-89
2021/07/29 17:25:37;;;;;;;;;;;;;;;5.46;100.00;99317.69;5061348;28;19921;-90
2021/07/29 17:28:04;;;;;;;;;;;;;;;5.46;99.06;99320.31;5061131;28;19986;-90
2021/07/29 17:30:32;;;;;;;;;;;;;;;5.42;99.69;99314.28;5063734;28;19928;-90
2021/07/29 17:33:01;;;;;;;;;;;;;;;5.46;99.74;99309.81;5065455;28;20280;-91
2021/07/29 17:35:26;;;;;;;;;;;;;;;5.46;99.65;99307.19;5055435;28;19943;-90
2021/07/29 17:37:52;;;;;;;;;;;;;;;5.48;99.44;99315.88;5072591;28;19925;-91
2021/07/29 17:40:18;;;;;;;;;;;;;;;5.34;100.00;99303.13;5066720;28;19909;-90
2021/07/29 17:42:43;;;;;;;;;;;;;;;5.36;100.00;99308.34;5057385;28;19964;-91
2021/07/29 17:45:09;;;;;;;;;;;;;;;5.30;100.00;99303.25;5070437;28;19928;-90
2021/07/29 17:47:41;;;;;;;;;;;;;;;5.26;100.00;99297.25;5062866;28;19928;-89
2021/07/29 17:50:08;;;;;;;;;;;;;;;5.29;100.00;99302.41;5056341;28;19921;-90
2021/07/29 17:52:38;;;;;;;;;;;;;;;5.28;100.00;99296.31;5074480;28;19921;-92
2021/07/29 17:55:07;;;;;;;;;;;;;;;5.30;100.00;99298.91;5049101;28;19966;-91
2021/07/29 17:57:36;;;;;;;;;;;;;;;5.30;100.00;99303.25;5071560;28;20324;-91
2021/07/29 18:00:07;;;;;;;;;;;;;;;5.28;100.00;99295.44;5074901;28;19920;-91
2021/07/29 18:02:34;;;;;;;;;;;;;;;5.33;100.00;99300.56;5071852;28;19921;-91
2021/07/29 18:05:07;;;;;;;;;;;;;;;5.22;100.00;99304.38;5069947;28;19920;-90
2021/07/29 18:07:37;;;;;;;;;;;;;;;5.23;100.00;99306.09;5058353;28;19974;-89
2021/07/29 18:10:20;;;;;;;;;;;;;;;5.27;100.00;99305.09;5060300;28;19932;-90
2021/07/29 18:12:45;;;;;;;;;;;;;;;5.23;100.00;99300.84;5063429;28;19932;-91
2021/07/29 18:15:12;;;;;;;;;;;;;;;5.23;100.00;99298.22;5061271;28;19921;-90
2021/07/29 18:17:39;;;;;;;;;;;;;;;5.20;100.00;99295.69;5071774;28;19935;-91
2021/07/29 18:20:06;;;;;;;;;;;;;;;5.24;100.00;99297.28;5071624;28;19921;-92
2021/07/29 18:22:44;;;;;;;;;;;;;;;;;;;;;
2021/07/29 18:25:13;;;;;;;;;;;;;;;5.24;100.00;99291.19;5088227;28;19980;-90
2021/07/29 18:27:40;;;;;;;;;;;;;;;5.24;100.00;99291.19;5082339;28;20303;-90
2021/07/29 18:30:09;;;;;;;;;;;;;;;5.18;100.00;99292.22;5081567;28;20211;-90
2021/07/29 18:32:36;;;;;;;;;;;;;;;5.20;100.00;99293.03;5081805;28;19924;-91
2021/07/29 18:35:10;;;;;;;;;;;;;;;5.30;100.00;99295.38;5087781;28;20364;-93
2021/07/29 18:37:41;;;;;;;;;;;;;;;5.26;100.00;99294.63;5098365;28;20057;-90
2021/07/29 18:40:11;;;;;;;;;;;;;;;5.25;100.00;99293.78;5087800;28;19948;-91
2021/07/29 18:42:37;;;;;;;;;;;;;;;5.24;100.00;99297.28;5072386;28;19936;-91
2021/07/29 18:45:03;;;;;;;;;;;;;;;5.25;100.00;99293.78;5088063;28;19921;-90
2021/07/29 18:47:29;;;;;;;;;;;;;;;5.24;100.00;99292.03;5088634;28;19960;-90
2021/07/29 18:49:54;;;;;;;;;;;;;;;5.25;100.00;99298.16;5086912;28;20222;-90
2021/07/29 18:52:21;;;;;;;;;;;;;;;5.24;100.00;99299.91;5077599;28;19979;-90
2021/07/29 18:54:50;;;;;;;;;;;;;;;5.27;100.00;99297.22;5066596;28;19925;-89
2021/07/29 18:57:16;;;;;;;;;;;;;;;5.21;100.00;99300.00;5066369;28;19935;-89
2021/07/29 18:59:41;;;;;;;;;;;;;;;5.22;100.00;99295.63;5080861;28;19984;-91
2021/07/29 19:02:07;;;;;;;;;;;;;;;5.18;100.00;99291.34;5092454;28;19920;-91
2021/07/29 19:04:33;;;;;;;;;;;;;;;5.22;100.00;99295.63;5089994;28;20145;-91
2021/07/29 19:06:58;;;;;;;;;;;;;;;5.27;100.00;99298.97;5084280;28;20218;-91
2021/07/29 19:09:27;;;;;;;;;;;;;;;5.24;100.00;99296.44;5069422;28;19921;-91
2021/07/29 19:11:53;;;;;;;;;;;;;;;5.25;100.00;99304.28;5050218;28;19920;-90
2021/07/29 19:14:18;;;;;;;;;;;;;;;5.26;100.00;99308.63;5072883;28;19967;-90
2021/07/29 19:16:45;;;;;;;;;;;;;;;5.27;100.00;99306.84;5066665;28;19925;-89
2021/07/29 19:19:14;;;;;;;;;;;;;;;5.23;100.00;99311.34;5065497;28;19921;-90
2021/07/29 19:21:39;;;;;;;;;;;;;;;5.93;100.00;99309.25;5048331;28;19970;-90
2021/07/29 19:24:05;;;;;;;;;;;;;;;5.70;100.00;99312.63;5052884;28;19925;-91
2021/07/29 19:26:30;;;;;;;;;;;;;;;5.69;100.00;99308.25;5070552;28;19920;-91
2021/07/29 19:28:55;;;;;;;;;;;;;;;5.62;100.00;99307.59;5073137;28;19956;-90
2021/07/29 19:31:23;;;;;;;;;;;;;;;5.63;99.11;99319.81;5071119;28;19975;-90
2021/07/29 19:33:50;;;;;;;;;;;;;;;5.63;99.36;99314.56;5067247;28;19984;-91
2021/07/29 19:36:15;;;;;;;;;;;;;;;5.52;99.61;99317.53;5054564;28;19905;-90
2021/07/29 19:38:41;;;;;;;;;;;;;;;5.48;99.11;99322.91;5065641;28;19931;-91
2021/07/29 19:41:07;;;;;;;;;;;;;;;5.52;99.70;99321.91;5064382;28;19960;-91
2021/07/29 19:43:32;;;;;;;;;;;;;;;5.51;99.60;99328.06;5065999;28;19964;-91
2021/07/29 19:45:58;;;;;;;;;;;;;;;5.51;99.72;99331.56;5068412;28;19921;-90
2021/07/29 19:48:23;;;;;;;;;;;;;;;5.51;100.00;99342.06;5049935;28;19931;-91
2021/07/29 19:50:52;;;;;;;;;;;;;;;5.57;99.84;99330.53;5072371;28;19955;-91
2021/07/29 19:53:20;;;;;;;;;;;;;;;5.49;99.79;99325.50;5071091;28;19925;-91
2021/07/29 19:55:46;;;;;;;;;;;;;;;5.52;100.00;99327.16;5069061;28;19948;-91
2021/07/29 19:58:11;;;;;;;;;;;;;;;5.54;100.00;99320.97;5075856;28;19921;-94
2021/07/29 20:00:36;;;;;;;;;;;;;;;5.46;100.00;99326.44;5073671;28;19929;-91
2021/07/29 20:03:02;;;;;;;;;;;;;;;5.54;100.00;99336.72;5068729;28;19921;-89
2021/07/29 20:05:27;;;;;;;;;;;;;;;5.53;100.00;99335.00;5067044;28;19935;-90